createdAt,value
2018-10-05T00:00:52.321Z,10.25
2018-10-05T00:01:52.389Z,10.15
2018-10-05T00:02:52.407Z,10.21
2018-10-05T00:03:52.465Z,10.18
2018-10-05T00:04:52.505Z,10.15
2018-10-05T00:05:52.549Z,10.14
2018-10-05T00:06:52.640Z,10.14
2018-10-05T00:07:52.661Z,10.26
2018-10-05T00:08:52.715Z,10.15
2018-10-05T00:09:52.743Z,10.17
2018-10-05T00:10:52.784Z,10.19
2018-10-05T00:11:52.837Z,10.14
2018-10-05T00:12:52.934Z,10.12
2018-10-05T00:13:53.081Z,10.06
2018-10-05T00:14:52.969Z,10.03
2018-10-05T00:15:53.017Z,10.06
2018-10-05T00:16:53.064Z,10.06
2018-10-05T00:17:53.113Z,9.97
2018-10-05T00:18:53.185Z,10.04
2018-10-05T00:19:53.206Z,9.91
2018-10-05T00:20:53.251Z,9.91
2018-10-05T00:21:53.297Z,9.94
2018-10-05T00:22:53.345Z,9.94
2018-10-05T00:23:53.416Z,9.93
2018-10-05T00:24:53.441Z,9.97
2018-10-05T00:25:53.518Z,9.83
2018-10-05T00:26:53.535Z,9.83
2018-10-05T00:27:53.579Z,9.86
2018-10-05T00:28:53.625Z,9.88
2018-10-05T00:29:53.672Z,9.81
2018-10-05T00:30:53.754Z,9.89
2018-10-05T00:31:53.780Z,9.83
2018-10-05T00:32:53.812Z,9.81
2018-10-05T00:33:53.861Z,9.81
2018-10-05T00:34:53.907Z,9.82
2018-10-05T00:35:53.987Z,9.82
2018-10-05T00:36:54.020Z,9.83
2018-10-05T00:37:54.094Z,9.79
2018-10-05T00:38:54.091Z,9.83
2018-10-05T00:39:54.165Z,9.78
2018-10-05T00:40:54.188Z,9.83
2018-10-05T00:41:54.250Z,9.73
2018-10-05T00:42:54.281Z,9.68
2018-10-05T00:43:54.367Z,9.58
2018-10-05T00:44:54.391Z,9.60
2018-10-05T00:45:54.424Z,9.57
2018-10-05T00:46:54.485Z,9.57
2018-10-05T00:47:54.518Z,9.61
2018-10-05T00:48:54.580Z,9.61
2018-10-05T00:49:54.606Z,9.57
2018-10-05T00:50:54.688Z,9.60
2018-10-05T00:51:54.710Z,9.58
2018-10-05T00:52:54.754Z,9.63
2018-10-05T00:53:54.794Z,9.58
2018-10-05T00:54:54.843Z,9.70
2018-10-05T00:55:54.910Z,9.64
2018-10-05T00:56:54.934Z,9.58
2018-10-05T00:57:55.032Z,9.67
2018-10-05T00:58:55.029Z,9.53
2018-10-05T00:59:55.079Z,9.61
2018-10-05T01:00:55.136Z,9.57
2018-10-05T01:01:55.266Z,9.56
2018-10-05T01:02:55.244Z,9.49
2018-10-05T01:03:55.262Z,9.50
2018-10-05T01:04:55.302Z,9.48
2018-10-05T01:05:55.355Z,9.49
2018-10-05T01:06:55.398Z,9.48
2018-10-05T01:07:55.470Z,9.50
2018-10-05T01:08:55.489Z,9.46
2018-10-05T01:09:55.543Z,9.48
2018-10-05T01:10:55.588Z,9.50
2018-10-05T01:11:55.647Z,9.43
2018-10-05T01:12:55.705Z,9.45
2018-10-05T01:13:55.727Z,9.38
2018-10-05T01:14:55.775Z,9.32
2018-10-05T01:15:55.824Z,9.31
2018-10-05T01:16:55.886Z,9.35
2018-10-05T01:17:55.912Z,9.31
2018-10-05T01:18:55.956Z,9.34
2018-10-05T01:19:56.037Z,9.27
2018-10-05T01:20:57.071Z,9.34
2018-10-05T01:21:56.095Z,9.31
2018-10-05T01:22:56.150Z,9.21
2018-10-05T01:23:56.191Z,9.30
2018-10-05T01:24:56.289Z,9.32
2018-10-05T01:25:56.294Z,9.24
2018-10-05T01:26:56.328Z,9.20
2018-10-05T01:27:56.375Z,9.21
2018-10-05T01:28:56.418Z,9.28
2018-10-05T01:29:56.486Z,9.24
2018-10-05T01:30:56.518Z,9.32
2018-10-05T01:31:56.580Z,9.23
2018-10-05T01:32:56.607Z,9.24
2018-10-05T01:33:56.652Z,9.13
2018-10-05T01:34:56.760Z,9.21
2018-10-05T01:35:56.743Z,9.12
2018-10-05T01:36:56.792Z,9.13
2018-10-05T01:37:56.861Z,9.12
2018-10-05T01:38:56.981Z,9.10
2018-10-05T01:39:56.938Z,9.10
2018-10-05T01:40:56.976Z,9.02
2018-10-05T01:41:57.060Z,9.02
2018-10-05T01:42:57.936Z,9.06
2018-10-05T01:43:57.114Z,9.01
2018-10-05T01:44:57.164Z,9.02
2018-10-05T01:45:57.209Z,9.01
2018-10-05T01:46:57.289Z,9.02
2018-10-05T01:47:57.301Z,9.02
2018-10-05T01:48:57.423Z,8.91
2018-10-05T01:49:57.392Z,8.99
2018-10-05T01:50:57.456Z,8.99
2018-10-05T01:51:57.517Z,8.96
2018-10-05T01:52:57.534Z,8.94
2018-10-05T01:53:57.579Z,8.91
2018-10-05T01:54:57.624Z,8.94
2018-10-05T01:55:57.828Z,8.93
2018-10-05T01:56:57.719Z,8.94
2018-10-05T01:57:57.766Z,8.93
2018-10-05T01:58:57.808Z,8.93
2018-10-05T01:59:57.856Z,8.91
2018-10-05T02:00:57.929Z,8.88
2018-10-05T02:01:57.966Z,8.93
2018-10-05T02:02:57.992Z,8.93
2018-10-05T02:03:58.040Z,8.93
2018-10-05T02:04:58.105Z,8.83
2018-10-05T02:05:58.130Z,8.90
2018-10-05T02:06:58.179Z,8.91
2018-10-05T02:07:58.225Z,8.87
2018-10-05T02:08:58.289Z,8.86
2018-10-05T02:09:58.319Z,8.86
2018-10-05T02:10:58.367Z,8.84
2018-10-05T02:11:58.410Z,8.83
2018-10-05T02:12:58.456Z,8.84
2018-10-05T02:13:58.528Z,8.83
2018-10-05T02:14:58.560Z,8.84
2018-10-05T02:15:58.613Z,8.86
2018-10-05T02:16:58.639Z,8.90
2018-10-05T02:17:58.687Z,8.87
2018-10-05T02:18:58.734Z,8.83
2018-10-05T02:19:58.777Z,8.91
2018-10-05T02:20:58.861Z,8.88
2018-10-05T02:21:58.869Z,8.90
2018-10-05T02:22:58.920Z,8.90
2018-10-05T02:23:58.962Z,8.91
2018-10-05T02:24:59.007Z,8.90
2018-10-05T02:25:59.177Z,8.94
2018-10-05T02:26:59.118Z,8.97
2018-10-05T02:27:59.154Z,8.91
2018-10-05T02:28:59.193Z,8.90
2018-10-05T02:29:59.238Z,8.87
2018-10-05T02:30:59.283Z,8.86
2018-10-05T02:31:59.355Z,8.88
2018-10-05T02:32:59.429Z,8.90
2018-10-05T02:33:59.425Z,8.86
2018-10-05T02:34:59.482Z,8.88
2018-10-05T02:35:59.517Z,8.94
2018-10-05T02:36:59.584Z,8.91
2018-10-05T02:37:59.628Z,8.88
2018-10-05T02:38:59.665Z,8.93
2018-10-05T02:39:59.702Z,8.83
2018-10-05T02:40:59.742Z,8.91
2018-10-05T02:41:59.821Z,8.83
2018-10-05T02:42:59.838Z,8.87
2018-10-05T02:43:59.883Z,8.86
2018-10-05T02:44:59.927Z,8.81
2018-10-05T02:45:59.983Z,8.87
2018-10-05T02:47:00.045Z,8.87
2018-10-05T02:48:00.073Z,8.76
2018-10-05T02:49:00.111Z,8.88
2018-10-05T02:50:00.173Z,8.86
2018-10-05T02:51:00.227Z,8.81
2018-10-05T02:52:00.277Z,8.83
2018-10-05T02:53:00.312Z,8.79
2018-10-05T02:54:00.350Z,8.81
2018-10-05T02:55:00.389Z,8.83
2018-10-05T02:56:00.436Z,8.84
2018-10-05T02:57:00.480Z,8.73
2018-10-05T02:58:00.555Z,8.76
2018-10-05T02:59:00.571Z,8.78
2018-10-05T03:00:00.636Z,8.69
2018-10-05T03:01:00.663Z,8.62
2018-10-05T03:02:00.711Z,8.71
2018-10-05T03:03:00.780Z,8.66
2018-10-05T03:04:00.809Z,8.68
2018-10-05T03:05:00.852Z,8.71
2018-10-05T03:06:00.896Z,8.63
2018-10-05T03:07:00.943Z,8.66
2018-10-05T03:08:01.004Z,8.69
2018-10-05T03:09:01.030Z,8.69
2018-10-05T03:10:01.113Z,8.69
2018-10-05T03:11:01.128Z,8.62
2018-10-05T03:12:01.195Z,8.55
2018-10-05T03:13:01.219Z,8.58
2018-10-05T03:14:01.298Z,8.65
2018-10-05T03:15:01.309Z,8.60
2018-10-05T03:16:01.354Z,8.57
2018-10-05T03:17:01.403Z,8.57
2018-10-05T03:18:01.445Z,8.57
2018-10-05T03:19:01.858Z,8.55
2018-10-05T03:20:01.538Z,8.54
2018-10-05T03:21:01.585Z,8.55
2018-10-05T03:22:01.629Z,8.55
2018-10-05T03:23:01.679Z,8.54
2018-10-05T03:24:01.720Z,8.53
2018-10-05T03:25:01.784Z,8.55
2018-10-05T03:26:01.815Z,8.50
2018-10-05T03:27:01.858Z,8.44
2018-10-05T03:28:01.911Z,8.50
2018-10-05T03:29:01.981Z,8.48
2018-10-05T03:30:01.999Z,8.50
2018-10-05T03:31:02.040Z,8.51
2018-10-05T03:32:02.093Z,8.53
2018-10-05T03:33:02.136Z,8.47
2018-10-05T03:34:02.199Z,8.47
2018-10-05T03:35:02.252Z,8.47
2018-10-05T03:36:02.270Z,8.51
2018-10-05T03:37:02.318Z,8.50
2018-10-05T03:38:02.370Z,8.47
2018-10-05T03:39:02.412Z,8.44
2018-10-05T03:40:02.473Z,8.39
2018-10-05T03:41:02.593Z,8.40
2018-10-05T03:42:02.544Z,8.30
2018-10-05T03:43:02.589Z,8.30
2018-10-05T03:44:02.637Z,8.36
2018-10-05T03:45:02.683Z,8.29
2018-10-05T03:46:02.763Z,8.33
2018-10-05T03:47:02.793Z,8.32
2018-10-05T03:48:02.821Z,8.37
2018-10-05T03:49:02.871Z,8.33
2018-10-05T03:50:02.916Z,8.35
2018-10-05T03:51:02.977Z,8.37
2018-10-05T03:52:03.031Z,8.35
2018-10-05T03:53:03.047Z,8.33
2018-10-05T03:54:03.100Z,8.45
2018-10-05T03:55:03.139Z,8.29
2018-10-05T03:56:03.222Z,8.35
2018-10-05T03:57:04.146Z,8.35
2018-10-05T03:58:03.277Z,8.48
2018-10-05T03:59:03.324Z,8.47
2018-10-05T04:00:03.368Z,8.40
2018-10-05T04:01:03.415Z,8.45
2018-10-05T04:02:03.483Z,8.51
2018-10-05T04:03:04.445Z,8.51
2018-10-05T04:04:03.553Z,8.54
2018-10-05T04:05:03.598Z,8.53
2018-10-05T04:06:03.641Z,8.53
2018-10-05T04:07:03.711Z,8.57
2018-10-05T04:08:03.751Z,8.57
2018-10-05T04:09:03.778Z,8.54
2018-10-05T04:10:03.829Z,8.53
2018-10-05T04:11:03.878Z,8.65
2018-10-05T04:12:03.919Z,8.68
2018-10-05T04:13:03.979Z,8.65
2018-10-05T04:14:04.008Z,8.62
2018-10-05T04:15:04.067Z,8.65
2018-10-05T04:16:04.105Z,8.72
2018-10-05T04:17:04.145Z,8.78
2018-10-05T04:18:04.213Z,8.75
2018-10-05T04:19:04.253Z,8.78
2018-10-05T04:20:04.312Z,8.75
2018-10-05T04:21:04.329Z,8.86
2018-10-05T04:22:04.383Z,8.72
2018-10-05T04:23:04.424Z,8.81
2018-10-05T04:24:06.142Z,8.87
2018-10-05T04:25:04.542Z,8.84
2018-10-05T04:26:04.580Z,8.83
2018-10-05T04:27:04.630Z,8.91
2018-10-05T04:28:04.650Z,8.83
2018-10-05T04:29:04.700Z,8.86
2018-10-05T04:30:04.766Z,8.96
2018-10-05T04:31:04.793Z,8.88
2018-10-05T04:32:04.837Z,8.91
2018-10-05T04:33:04.894Z,9.04
2018-10-05T04:34:04.940Z,9.05
2018-10-05T04:35:05.003Z,9.02
2018-10-05T04:36:05.022Z,9.01
2018-10-05T04:37:05.065Z,9.06
2018-10-05T04:38:05.117Z,9.24
2018-10-05T04:39:05.157Z,9.23
2018-10-05T04:40:05.238Z,9.23
2018-10-05T04:41:05.271Z,9.31
2018-10-05T04:42:05.299Z,9.28
2018-10-05T04:43:05.345Z,9.39
2018-10-05T04:44:05.388Z,9.38
2018-10-05T04:45:05.480Z,9.31
2018-10-05T04:46:05.488Z,9.32
2018-10-05T04:47:05.579Z,9.35
2018-10-05T04:48:05.607Z,9.45
2018-10-05T04:49:05.623Z,9.50
2018-10-05T04:50:05.688Z,9.40
2018-10-05T04:51:05.713Z,9.40
2018-10-05T04:52:05.764Z,9.39
2018-10-05T04:53:05.821Z,9.45
2018-10-05T04:54:05.908Z,9.46
2018-10-05T04:55:05.897Z,9.48
2018-10-05T04:56:05.967Z,9.58
2018-10-05T04:57:05.995Z,9.58
2018-10-05T04:58:06.056Z,9.58
2018-10-05T04:59:06.085Z,9.70
2018-10-05T05:00:06.129Z,9.71
2018-10-05T05:01:06.174Z,9.71
2018-10-05T05:02:06.250Z,9.76
2018-10-05T05:03:06.267Z,9.71
2018-10-05T05:04:06.323Z,9.81
2018-10-05T05:05:06.364Z,9.82
2018-10-05T05:06:06.415Z,9.85
2018-10-05T05:07:06.474Z,9.82
2018-10-05T05:08:06.531Z,9.86
2018-10-05T05:09:06.543Z,9.83
2018-10-05T05:10:06.598Z,9.86
2018-10-05T05:11:06.651Z,9.83
2018-10-05T05:12:06.724Z,9.91
2018-10-05T05:13:06.754Z,9.99
2018-10-05T05:14:06.815Z,9.91
2018-10-05T05:15:06.827Z,9.99
2018-10-05T05:16:06.879Z,9.94
2018-10-05T05:17:06.964Z,9.91
2018-10-05T05:18:06.968Z,10.00
2018-10-05T05:19:07.014Z,9.99
2018-10-05T05:20:07.063Z,9.97
2018-10-05T05:21:07.111Z,10.06
2018-10-05T05:22:07.181Z,9.99
2018-10-05T05:23:07.201Z,9.97
2018-10-05T05:24:07.254Z,9.93
2018-10-05T05:25:07.295Z,9.91
2018-10-05T05:26:07.368Z,10.03
2018-10-05T05:27:07.392Z,10.09
2018-10-05T05:28:07.434Z,9.96
2018-10-05T05:29:07.507Z,10.04
2018-10-05T05:30:07.575Z,10.03
2018-10-05T05:31:07.573Z,9.94
2018-10-05T05:32:07.623Z,9.97
2018-10-05T05:33:07.669Z,9.99
2018-10-05T05:34:07.753Z,9.94
2018-10-05T05:35:07.759Z,9.93
2018-10-05T05:36:07.809Z,9.89
2018-10-05T05:37:07.858Z,9.97
2018-10-05T05:38:07.902Z,9.86
2018-10-05T05:39:07.978Z,9.86
2018-10-05T05:40:08.051Z,9.85
2018-10-05T05:41:08.071Z,9.91
2018-10-05T05:42:08.100Z,9.88
2018-10-05T05:43:08.139Z,9.86
2018-10-05T05:44:08.182Z,9.86
2018-10-05T05:45:08.243Z,9.85
2018-10-05T05:46:08.310Z,9.85
2018-10-05T05:47:08.322Z,9.89
2018-10-05T05:48:08.369Z,9.91
2018-10-05T05:49:08.414Z,10.00
2018-10-05T05:50:08.464Z,9.85
2018-10-05T05:51:08.531Z,10.01
2018-10-05T05:52:08.557Z,9.89
2018-10-05T05:53:08.600Z,10.00
2018-10-05T05:54:08.724Z,10.03
2018-10-05T05:55:08.701Z,10.00
2018-10-05T05:56:08.792Z,10.04
2018-10-05T05:57:08.795Z,10.10
2018-10-05T05:58:08.835Z,10.09
2018-10-05T05:59:08.882Z,10.03
2018-10-05T06:00:08.934Z,10.10
2018-10-05T06:01:09.071Z,9.96
2018-10-05T06:02:09.026Z,10.04
2018-10-05T06:03:09.074Z,10.10
2018-10-05T06:04:09.119Z,10.01
2018-10-05T06:05:09.168Z,10.14
2018-10-05T06:06:09.232Z,10.06
2018-10-05T06:07:09.275Z,10.10
2018-10-05T06:08:09.345Z,10.14
2018-10-05T06:09:09.357Z,10.07
2018-10-05T06:10:09.398Z,10.17
2018-10-05T06:11:09.452Z,10.01
2018-10-05T06:12:09.511Z,10.19
2018-10-05T06:13:09.537Z,10.21
2018-10-05T06:14:09.590Z,10.25
2018-10-05T06:15:09.659Z,10.33
2018-10-05T06:16:09.734Z,10.43
2018-10-05T06:17:09.744Z,10.53
2018-10-05T06:18:09.775Z,10.51
2018-10-05T06:19:09.819Z,10.52
2018-10-05T06:20:09.871Z,10.56
2018-10-05T06:21:09.910Z,10.65
2018-10-05T06:22:10.167Z,10.63
2018-10-05T06:23:10.033Z,10.68
2018-10-05T06:24:10.070Z,10.78
2018-10-05T06:25:10.103Z,10.71
2018-10-05T06:26:10.154Z,10.83
2018-10-05T06:27:10.206Z,10.89
2018-10-05T06:28:10.240Z,10.92
2018-10-05T06:29:10.342Z,10.98
2018-10-05T06:30:10.376Z,11.02
2018-10-05T06:31:10.424Z,11.07
2018-10-05T06:32:10.433Z,11.09
2018-10-05T06:33:10.500Z,11.13
2018-10-05T06:34:10.547Z,11.14
2018-10-05T06:35:10.578Z,11.20
2018-10-05T06:36:10.635Z,11.31
2018-10-05T06:37:10.670Z,11.34
2018-10-05T06:38:10.737Z,11.36
2018-10-05T06:39:10.836Z,11.44
2018-10-05T06:40:10.840Z,11.53
2018-10-05T06:41:10.882Z,11.50
2018-10-05T06:42:11.140Z,11.56
2018-10-05T06:43:10.957Z,11.59
2018-10-05T06:44:11.020Z,11.68
2018-10-05T06:45:11.052Z,11.83
2018-10-05T06:46:11.105Z,11.85
2018-10-05T06:47:11.167Z,11.90
2018-10-05T06:48:11.189Z,11.93
2018-10-05T06:49:11.253Z,11.93
2018-10-05T06:50:11.284Z,11.94
2018-10-05T06:51:11.332Z,11.99
2018-10-05T06:52:11.429Z,12.08
2018-10-05T06:53:11.479Z,12.05
2018-10-05T06:54:11.486Z,12.15
2018-10-05T06:55:11.536Z,12.12
2018-10-05T06:56:11.574Z,12.15
2018-10-05T06:57:11.644Z,12.20
2018-10-05T06:58:11.691Z,12.19
2018-10-05T06:59:11.715Z,12.19
2018-10-05T07:00:11.777Z,12.19
2018-10-05T07:01:11.829Z,12.23
2018-10-05T07:02:11.869Z,12.24
2018-10-05T07:03:11.934Z,12.13
2018-10-05T07:04:11.963Z,12.21
2018-10-05T07:05:12.009Z,12.30
2018-10-05T07:06:12.052Z,12.24
2018-10-05T07:07:12.105Z,12.37
2018-10-05T07:08:12.249Z,12.31
2018-10-05T07:09:12.194Z,12.33
2018-10-05T07:10:12.250Z,12.39
2018-10-05T07:11:12.963Z,12.38
2018-10-05T07:12:12.343Z,12.44
2018-10-05T07:13:12.435Z,12.29
2018-10-05T07:14:12.435Z,12.45
2018-10-05T07:15:12.493Z,12.41
2018-10-05T07:16:12.534Z,12.41
2018-10-05T07:17:12.581Z,12.38
2018-10-05T07:18:12.792Z,12.38
2018-10-05T07:19:12.716Z,12.33
2018-10-05T07:20:12.726Z,12.38
2018-10-05T07:21:12.802Z,12.37
2018-10-05T07:22:12.827Z,12.41
2018-10-05T07:23:12.872Z,12.51
2018-10-05T07:24:12.944Z,12.42
2018-10-05T07:25:12.970Z,12.45
2018-10-05T07:26:13.027Z,12.57
2018-10-05T07:27:13.065Z,12.54
2018-10-05T07:28:13.153Z,12.59
2018-10-05T07:29:13.197Z,12.57
2018-10-05T07:30:13.214Z,12.70
2018-10-05T07:31:13.258Z,12.67
2018-10-05T07:32:13.307Z,12.75
2018-10-05T07:33:13.353Z,12.79
2018-10-05T07:34:13.438Z,12.79
2018-10-05T07:35:13.490Z,12.78
2018-10-05T07:36:14.472Z,12.82
2018-10-05T07:37:13.566Z,12.84
2018-10-05T07:38:13.606Z,12.95
2018-10-05T07:39:13.645Z,12.95
2018-10-05T07:40:13.714Z,13.02
2018-10-05T07:41:13.761Z,13.00
2018-10-05T07:42:13.795Z,12.99
2018-10-05T07:43:13.839Z,13.15
2018-10-05T07:44:13.895Z,13.12
2018-10-05T07:45:13.968Z,13.14
2018-10-05T07:46:13.982Z,13.22
2018-10-05T07:47:14.066Z,13.21
2018-10-05T07:48:14.083Z,13.22
2018-10-05T07:49:14.134Z,13.25
2018-10-05T07:50:14.197Z,13.20
2018-10-05T07:51:14.249Z,13.20
2018-10-05T07:52:14.277Z,13.20
2018-10-05T07:53:14.320Z,13.18
2018-10-05T07:54:14.378Z,13.07
2018-10-05T07:55:14.421Z,13.04
2018-10-05T07:56:14.489Z,12.97
2018-10-05T07:57:14.550Z,12.97
2018-10-05T07:58:14.598Z,13.07
2018-10-05T07:59:14.614Z,12.99
2018-10-05T08:00:14.664Z,13.02
2018-10-05T08:01:14.712Z,13.04
2018-10-05T08:02:14.763Z,13.15
2018-10-05T08:03:14.842Z,13.18
2018-10-05T08:04:14.858Z,13.21
2018-10-05T08:05:14.919Z,13.20
2018-10-05T08:06:14.971Z,13.21
2018-10-05T08:07:15.011Z,13.25
2018-10-05T08:08:15.079Z,13.36
2018-10-05T08:09:15.164Z,13.47
2018-10-05T08:10:15.148Z,13.47
2018-10-05T08:11:15.202Z,13.46
2018-10-05T08:12:15.257Z,13.46
2018-10-05T08:13:15.333Z,13.52
2018-10-05T08:14:15.383Z,13.51
2018-10-05T08:15:15.398Z,13.62
2018-10-05T08:16:15.468Z,13.65
2018-10-05T08:17:15.504Z,13.76
2018-10-05T08:18:15.541Z,13.71
2018-10-05T08:19:15.654Z,13.79
2018-10-05T08:20:15.645Z,13.73
2018-10-05T08:21:15.690Z,13.62
2018-10-05T08:22:15.741Z,13.80
2018-10-05T08:23:15.831Z,13.80
2018-10-05T08:24:15.856Z,13.76
2018-10-05T08:25:15.909Z,13.81
2018-10-05T08:26:15.936Z,13.76
2018-10-05T08:27:16.027Z,13.87
2018-10-05T08:28:16.031Z,13.83
2018-10-05T08:29:16.083Z,13.84
2018-10-05T08:30:16.159Z,13.84
2018-10-05T08:31:16.179Z,13.79
2018-10-05T08:32:16.229Z,13.88
2018-10-05T08:33:16.278Z,13.89
2018-10-05T08:34:16.340Z,13.83
2018-10-05T08:35:16.402Z,13.88
2018-10-05T08:36:16.429Z,13.89
2018-10-05T08:37:16.480Z,14.01
2018-10-05T08:38:16.524Z,14.09
2018-10-05T08:39:16.576Z,14.07
2018-10-05T08:40:16.754Z,14.07
2018-10-05T08:41:16.720Z,14.16
2018-10-05T08:42:16.731Z,14.17
2018-10-05T08:43:16.770Z,14.20
2018-10-05T08:44:16.823Z,14.27
2018-10-05T08:45:16.871Z,14.34
2018-10-05T08:46:16.951Z,14.27
2018-10-05T08:47:16.973Z,14.24
2018-10-05T08:48:17.029Z,14.27
2018-10-05T08:49:17.067Z,14.29
2018-10-05T08:50:17.113Z,14.19
2018-10-05T08:51:17.188Z,14.39
2018-10-05T08:52:17.238Z,14.46
2018-10-05T08:53:17.301Z,14.52
2018-10-05T08:54:17.314Z,14.65
2018-10-05T08:55:17.361Z,14.57
2018-10-05T08:56:17.410Z,14.50
2018-10-05T08:57:17.476Z,14.57
2018-10-05T08:58:17.543Z,14.50
2018-10-05T08:59:17.571Z,14.54
2018-10-05T09:00:17.679Z,14.69
2018-10-05T09:01:17.661Z,14.91
2018-10-05T09:02:17.712Z,15.02
2018-10-05T09:03:17.786Z,15.09
2018-10-05T09:04:17.807Z,15.21
2018-10-05T09:05:17.863Z,15.60
2018-10-05T09:06:17.909Z,16.25
2018-10-05T09:07:17.981Z,16.89
2018-10-05T09:08:18.006Z,17.14
2018-10-05T09:09:18.058Z,17.51
2018-10-05T09:10:18.106Z,17.66
2018-10-05T09:11:18.199Z,17.97
2018-10-05T09:12:18.263Z,18.40
2018-10-05T09:13:18.287Z,18.55
2018-10-05T09:14:18.335Z,18.47
2018-10-05T09:15:18.361Z,18.82
2018-10-05T09:16:18.412Z,18.64
2018-10-05T09:17:18.462Z,18.80
2018-10-05T09:18:18.584Z,18.94
2018-10-05T09:19:18.669Z,18.97
2018-10-05T09:20:18.618Z,18.52
2018-10-05T09:21:18.669Z,18.46
2018-10-05T09:22:18.719Z,18.67
2018-10-05T09:23:18.779Z,18.86
2018-10-05T09:24:18.899Z,19.28
2018-10-05T09:25:18.876Z,19.36
2018-10-05T09:26:18.960Z,19.43
2018-10-05T09:27:18.989Z,19.46
2018-10-05T09:28:19.032Z,19.75
2018-10-05T09:29:19.085Z,19.79
2018-10-05T09:30:19.138Z,19.76
2018-10-05T09:31:19.227Z,19.84
2018-10-05T09:32:19.241Z,20.08
2018-10-05T09:33:19.307Z,20.15
2018-10-05T09:34:19.351Z,20.28
2018-10-05T09:35:19.421Z,20.31
2018-10-05T09:36:19.456Z,20.39
2018-10-05T09:37:19.544Z,20.27
2018-10-05T09:38:19.562Z,20.12
2018-10-05T09:39:19.620Z,20.24
2018-10-05T09:40:19.673Z,20.38
2018-10-05T09:41:19.732Z,20.61
2018-10-05T09:42:19.807Z,20.64
2018-10-05T09:43:19.829Z,20.81
2018-10-05T09:44:19.880Z,20.87
2018-10-05T09:45:19.998Z,21.01
2018-10-05T09:46:20.016Z,20.99
2018-10-05T09:47:20.041Z,19.91
2018-10-05T09:48:20.100Z,18.12
2018-10-05T09:49:20.149Z,17.92
2018-10-05T09:50:20.215Z,18.09
2018-10-05T09:51:20.279Z,17.91
2018-10-05T09:52:20.348Z,17.07
2018-10-05T09:53:20.363Z,16.86
2018-10-05T09:54:20.419Z,17.15
2018-10-05T09:55:20.487Z,17.70
2018-10-05T09:56:20.559Z,18.25
2018-10-05T09:57:20.589Z,18.76
2018-10-05T09:58:20.632Z,17.78
2018-10-05T09:59:20.759Z,17.23
2018-10-05T10:00:20.770Z,17.04
2018-10-05T10:01:20.816Z,17.47
2018-10-05T10:02:20.885Z,18.02
2018-10-05T10:03:21.503Z,17.81
2018-10-05T10:04:20.947Z,17.63
2018-10-05T10:05:21.014Z,17.15
2018-10-05T10:06:21.071Z,17.23
2018-10-05T10:07:21.130Z,17.23
2018-10-05T10:08:21.216Z,17.32
2018-10-05T10:09:21.223Z,17.59
2018-10-05T10:10:21.268Z,17.99
2018-10-05T10:11:21.334Z,17.97
2018-10-05T10:12:21.405Z,17.53
2018-10-05T10:13:21.491Z,17.26
2018-10-05T10:14:21.486Z,17.11
2018-10-05T10:15:21.529Z,16.65
2018-10-05T10:16:21.600Z,16.63
2018-10-05T10:17:21.640Z,16.55
2018-10-05T10:18:21.689Z,16.53
2018-10-05T10:19:21.739Z,16.92
2018-10-05T10:20:21.792Z,17.06
2018-10-05T10:21:21.938Z,17.50
2018-10-05T10:22:21.897Z,17.33
2018-10-05T10:23:21.950Z,17.32
2018-10-05T10:24:22.003Z,17.48
2018-10-05T10:25:22.179Z,17.55
2018-10-05T10:26:22.134Z,17.81
2018-10-05T10:27:22.158Z,17.82
2018-10-05T10:28:22.234Z,18.00
2018-10-05T10:29:22.310Z,17.88
2018-10-05T10:30:22.316Z,17.89
2018-10-05T10:31:22.401Z,18.00
2018-10-05T10:32:22.474Z,18.18
2018-10-05T10:33:22.475Z,18.37
2018-10-05T10:34:22.586Z,18.95
2018-10-05T10:35:22.577Z,19.53
2018-10-05T10:36:22.660Z,19.76
2018-10-05T10:37:22.721Z,20.06
2018-10-05T10:38:22.909Z,20.35
2018-10-05T10:39:22.876Z,20.49
2018-10-05T10:40:22.839Z,20.74
2018-10-05T10:41:22.897Z,20.21
2018-10-05T10:42:22.976Z,19.47
2018-10-05T10:43:23.100Z,19.68
2018-10-05T10:44:23.055Z,19.40
2018-10-05T10:45:23.106Z,18.86
2018-10-05T10:46:23.182Z,18.65
2018-10-05T10:47:23.247Z,18.31
2018-10-05T10:48:23.266Z,18.25
2018-10-05T10:49:23.335Z,18.34
2018-10-05T10:50:23.385Z,18.44
2018-10-05T10:51:23.427Z,18.58
2018-10-05T10:52:23.508Z,18.57
2018-10-05T10:53:23.535Z,18.43
2018-10-05T10:54:23.606Z,18.36
2018-10-05T10:55:23.640Z,18.12
2018-10-05T10:56:23.738Z,18.36
2018-10-05T10:57:23.746Z,18.00
2018-10-05T10:58:23.902Z,17.88
2018-10-05T10:59:23.850Z,17.84
2018-10-05T11:00:23.916Z,17.67
2018-10-05T11:01:23.975Z,17.55
2018-10-05T11:02:24.014Z,17.54
2018-10-05T11:03:24.065Z,17.69
2018-10-05T11:04:24.184Z,17.53
2018-10-05T11:05:24.290Z,17.46
2018-10-05T11:06:24.221Z,17.57
2018-10-05T11:07:24.284Z,17.44
2018-10-05T11:08:24.327Z,17.69
2018-10-05T11:09:24.409Z,17.71
2018-10-05T11:10:24.431Z,17.74
2018-10-05T11:11:24.491Z,18.39
2018-10-05T11:12:24.660Z,18.79
2018-10-05T11:13:24.597Z,19.24
2018-10-05T11:14:24.674Z,19.51
2018-10-05T11:15:24.714Z,19.94
2018-10-05T11:16:24.759Z,20.27
2018-10-05T11:17:24.806Z,20.21
2018-10-05T11:18:24.871Z,20.51
2018-10-05T11:19:24.930Z,20.66
2018-10-05T11:20:24.966Z,20.77
2018-10-05T11:21:25.015Z,20.89
2018-10-05T11:22:25.084Z,20.24
2018-10-05T11:23:25.183Z,19.40
2018-10-05T11:24:25.220Z,18.59
2018-10-05T11:25:25.259Z,18.25
2018-10-05T11:26:25.286Z,18.13
2018-10-05T11:27:25.341Z,18.10
2018-10-05T11:28:25.391Z,18.44
2018-10-05T11:29:25.445Z,18.40
2018-10-05T11:30:25.516Z,18.40
2018-10-05T11:31:25.570Z,18.25
2018-10-05T11:32:25.603Z,18.07
2018-10-05T11:33:25.655Z,18.64
2018-10-05T11:34:25.722Z,19.18
2018-10-05T11:35:25.788Z,19.33
2018-10-05T11:36:25.835Z,18.99
2018-10-05T11:37:25.874Z,19.11
2018-10-05T11:38:25.928Z,18.94
2018-10-05T11:39:25.980Z,18.83
2018-10-05T11:40:26.067Z,18.79
2018-10-05T11:41:26.107Z,18.40
2018-10-05T11:42:26.150Z,18.00
2018-10-05T11:43:26.204Z,17.54
2018-10-05T11:44:26.251Z,17.62
2018-10-05T11:45:26.308Z,17.33
2018-10-05T11:46:26.425Z,17.22
2018-10-05T11:47:26.408Z,17.66
2018-10-05T11:48:26.460Z,17.82
2018-10-05T11:49:26.517Z,18.17
2018-10-05T11:50:26.564Z,18.70
2018-10-05T11:51:26.643Z,18.84
2018-10-05T11:52:26.705Z,18.64
2018-10-05T11:53:26.748Z,18.24
2018-10-05T11:54:26.776Z,18.19
2018-10-05T11:55:26.835Z,18.37
2018-10-05T11:56:26.885Z,18.55
2018-10-05T11:57:26.945Z,18.67
2018-10-05T11:58:27.018Z,18.37
2018-10-05T11:59:27.071Z,18.52
2018-10-05T12:00:27.094Z,18.59
2018-10-05T12:01:27.150Z,18.64
2018-10-05T12:02:27.213Z,18.80
2018-10-05T12:03:27.301Z,18.57
2018-10-05T12:04:27.329Z,18.33
2018-10-05T12:05:27.372Z,18.12
2018-10-05T12:06:27.419Z,18.17
2018-10-05T12:07:27.481Z,17.88
2018-10-05T12:08:27.544Z,17.48
2018-10-05T12:09:27.582Z,17.22
2018-10-05T12:10:27.651Z,17.18
2018-10-05T12:11:27.685Z,17.44
2018-10-05T12:12:27.737Z,17.50
2018-10-05T12:13:27.793Z,17.64
2018-10-05T12:14:27.846Z,18.04
2018-10-05T12:15:27.934Z,18.13
2018-10-05T12:16:27.958Z,18.36
2018-10-05T12:17:28.012Z,18.18
2018-10-05T12:18:28.068Z,18.13
2018-10-05T12:19:28.146Z,18.57
2018-10-05T12:20:28.165Z,18.62
2018-10-05T12:21:28.229Z,18.55
2018-10-05T12:22:28.289Z,18.44
2018-10-05T12:23:28.326Z,18.44
2018-10-05T12:24:28.388Z,18.36
2018-10-05T12:25:28.431Z,18.15
2018-10-05T12:26:28.553Z,18.15
2018-10-05T12:27:28.570Z,17.91
2018-10-05T12:28:28.607Z,17.67
2018-10-05T12:29:28.649Z,17.54
2018-10-05T12:30:28.735Z,17.54
2018-10-05T12:31:28.776Z,17.46
2018-10-05T12:32:28.827Z,17.47
2018-10-05T12:33:28.864Z,17.40
2018-10-05T12:34:28.926Z,17.32
2018-10-05T12:35:28.972Z,17.46
2018-10-05T12:36:29.051Z,17.92
2018-10-05T12:37:29.079Z,17.91
2018-10-05T12:38:29.143Z,18.10
2018-10-05T12:39:29.187Z,18.07
2018-10-05T12:40:29.243Z,18.21
2018-10-05T12:41:29.313Z,17.85
2018-10-05T12:42:29.360Z,17.66
2018-10-05T12:43:29.434Z,17.73
2018-10-05T12:44:29.458Z,17.38
2018-10-05T12:45:29.517Z,17.33
2018-10-05T12:46:29.568Z,17.67
2018-10-05T12:47:29.648Z,17.74
2018-10-05T12:48:29.688Z,18.00
2018-10-05T12:49:29.750Z,18.21
2018-10-05T12:50:29.795Z,18.25
2018-10-05T12:51:29.839Z,18.28
2018-10-05T12:52:29.920Z,18.27
2018-10-05T12:53:29.949Z,18.25
2018-10-05T12:54:30.104Z,17.97
2018-10-05T12:55:30.052Z,18.06
2018-10-05T12:56:30.117Z,18.00
2018-10-05T12:57:30.172Z,17.88
2018-10-05T12:58:30.225Z,17.97
2018-10-05T12:59:30.295Z,18.36
2018-10-05T13:00:30.325Z,18.87
2018-10-05T13:01:30.391Z,19.23
2018-10-05T13:02:30.442Z,19.36
2018-10-05T13:03:30.510Z,19.66
2018-10-05T13:04:30.564Z,19.97